sensor_id;sensor_type;location;lat;lon;timestamp;pressure;altitude;pressure_sealevel;temperature;humidity
60832;BME280;46665;51.558;-0.448;2024-02-23T00:00:36;98090.13;;;1.82;100.00
60832;BME280;46665;51.558;-0.448;2024-02-23T00:03:20;98079.19;;;1.79;100.00
60832;BME280;46665;51.558;-0.448;2024-02-23T00:06:04;98083.16;;;1.81;100.00
60832;BME280;46665;51.558;-0.448;2024-02-23T00:08:47;98075.66;;;1.83;100.00
60832;BME280;46665;51.558;-0.448;2024-02-23T00:11:31;98077.81;;;1.81;100.00
60832;BME280;46665;51.558;-0.448;2024-02-23T00:14:23;98069.81;;;1.76;100.00
60832;BME280;46665;51.558;-0.448;2024-02-23T00:17:07;98084.31;;;1.75;100.00
60832;BME280;46665;51.558;-0.448;2024-02-23T00:19:51;98070.41;;;1.73;100.00
60832;BME280;46665;51.558;-0.448;2024-02-23T00:22:36;98075.69;;;1.78;100.00
60832;BME280;46665;51.558;-0.448;2024-02-23T00:25:21;98071.41;;;1.77;100.00
60832;BME280;46665;51.558;-0.448;2024-02-23T00:28:07;98070.91;;;1.75;100.00
60832;BME280;46665;51.558;-0.448;2024-02-23T00:30:51;98068.44;;;1.79;100.00
60832;BME280;46665;51.558;-0.448;2024-02-23T00:33:35;98064.19;;;1.78;100.00
60832;BME280;46665;51.558;-0.448;2024-02-23T00:36:21;98065.25;;;1.77;100.00
60832;BME280;46665;51.558;-0.448;2024-02-23T00:39:06;98072.78;;;1.74;100.00
60832;BME280;46665;51.558;-0.448;2024-02-23T00:41:53;98065.84;;;1.73;100.00
60832;BME280;46665;51.558;-0.448;2024-02-23T00:44:37;98068.50;;;1.73;100.00
60832;BME280;46665;51.558;-0.448;2024-02-23T00:47:21;98061.84;;;1.71;100.00
60832;BME280;46665;51.558;-0.448;2024-02-23T00:50:05;98054.38;;;1.68;100.00
60832;BME280;46665;51.558;-0.448;2024-02-23T00:52:49;98051.69;;;1.68;100.00
60832;BME280;46665;51.558;-0.448;2024-02-23T00:55:34;98040.44;;;1.66;100.00
60832;BME280;46665;51.558;-0.448;2024-02-23T00:58:18;98036.19;;;1.65;100.00
60832;BME280;46665;51.558;-0.448;2024-02-23T01:01:02;98038.03;;;1.64;100.00
60832;BME280;46665;51.558;-0.448;2024-02-23T01:03:47;98026.25;;;1.65;100.00
60832;BME280;46665;51.558;-0.448;2024-02-23T01:06:31;98030.25;;;1.68;100.00
60832;BME280;46665;51.558;-0.448;2024-02-23T01:09:15;98019.28;;;1.64;100.00
60832;BME280;46665;51.558;-0.448;2024-02-23T01:12:00;98017.91;;;1.67;100.00
60832;BME280;46665;51.558;-0.448;2024-02-23T01:14:44;98015.75;;;1.69;100.00
60832;BME280;46665;51.558;-0.448;2024-02-23T01:17:28;98015.81;;;1.64;100.00
60832;BME280;46665;51.558;-0.448;2024-02-23T01:20:12;98009.06;;;1.66;100.00
60832;BME280;46665;51.558;-0.448;2024-02-23T01:22:57;98004.56;;;1.62;100.00
60832;BME280;46665;51.558;-0.448;2024-02-23T01:25:40;98004.81;;;1.65;100.00
60832;BME280;46665;51.558;-0.448;2024-02-23T01:28:24;98002.34;;;1.69;100.00
60832;BME280;46665;51.558;-0.448;2024-02-23T01:31:09;97991.84;;;1.72;100.00
60832;BME280;46665;51.558;-0.448;2024-02-23T01:33:54;97984.59;;;1.73;100.00
60832;BME280;46665;51.558;-0.448;2024-02-23T01:36:38;97973.31;;;1.76;100.00
60832;BME280;46665;51.558;-0.448;2024-02-23T01:39:22;97976.19;;;1.80;100.00
60832;BME280;46665;51.558;-0.448;2024-02-23T01:42:08;97963.59;;;1.80;100.00
60832;BME280;46665;51.558;-0.448;2024-02-23T01:44:52;97960.34;;;1.83;100.00
60832;BME280;46665;51.558;-0.448;2024-02-23T01:47:37;97976.34;;;1.88;100.00
60832;BME280;46665;51.558;-0.448;2024-02-23T01:50:21;97979.03;;;1.88;100.00
60832;BME280;46665;51.558;-0.448;2024-02-23T01:53:06;97974.69;;;1.92;100.00
60832;BME280;46665;51.558;-0.448;2024-02-23T01:55:50;97967.44;;;1.93;100.00
60832;BME280;46665;51.558;-0.448;2024-02-23T01:58:35;97970.13;;;1.93;100.00
60832;BME280;46665;51.558;-0.448;2024-02-23T02:01:21;97966.59;;;1.98;100.00
60832;BME280;46665;51.558;-0.448;2024-02-23T02:04:05;97955.34;;;1.95;100.00
60832;BME280;46665;51.558;-0.448;2024-02-23T02:06:49;97960.13;;;1.99;100.00
60832;BME280;46665;51.558;-0.448;2024-02-23T02:09:33;97948.88;;;1.97;100.00
60832;BME280;46665;51.558;-0.448;2024-02-23T02:12:29;97943.75;;;2.00;100.00
60832;BME280;46665;51.558;-0.448;2024-02-23T02:15:13;97941.56;;;2.02;100.00
60832;BME280;46665;51.558;-0.448;2024-02-23T02:17:57;97930.53;;;2.04;100.00
60832;BME280;46665;51.558;-0.448;2024-02-23T02:20:51;97932.44;;;2.03;100.00
60832;BME280;46665;51.558;-0.448;2024-02-23T02:23:35;97930.53;;;2.04;100.00
60832;BME280;46665;51.558;-0.448;2024-02-23T02:26:21;97929.69;;;2.08;100.00
60832;BME280;46665;51.558;-0.448;2024-02-23T02:29:06;97909.28;;;2.07;100.00
60832;BME280;46665;51.558;-0.448;2024-02-23T02:31:50;97904.16;;;2.11;100.00
60832;BME280;46665;51.558;-0.448;2024-02-23T02:34:34;97894.41;;;2.15;100.00
60832;BME280;46665;51.558;-0.448;2024-02-23T02:37:17;97892.75;;;2.19;100.00
60832;BME280;46665;51.558;-0.448;2024-02-23T02:40:02;97885.50;;;2.20;100.00
60832;BME280;46665;51.558;-0.448;2024-02-23T02:42:47;97882.22;;;2.23;100.00
60832;BME280;46665;51.558;-0.448;2024-02-23T02:45:31;97886.72;;;2.27;100.00
60832;BME280;46665;51.558;-0.448;2024-02-23T02:48:15;97867.63;;;2.29;100.00
60832;BME280;46665;51.558;-0.448;2024-02-23T02:50:59;97866.66;;;2.38;100.00
60832;BME280;46665;51.558;-0.448;2024-02-23T02:53:43;97857.44;;;2.45;100.00
60832;BME280;46665;51.558;-0.448;2024-02-23T02:56:27;97855.34;;;2.55;100.00
60832;BME280;46665;51.558;-0.448;2024-02-23T02:59:12;97853.38;;;2.61;100.00
60832;BME280;46665;51.558;-0.448;2024-02-23T03:01:56;97845.44;;;2.70;100.00
60832;BME280;46665;51.558;-0.448;2024-02-23T03:04:50;97856.84;;;2.75;100.00
60832;BME280;46665;51.558;-0.448;2024-02-23T03:07:34;97857.88;;;2.79;100.00
60832;BME280;46665;51.558;-0.448;2024-02-23T03:10:18;97837.88;;;2.86;100.00
60832;BME280;46665;51.558;-0.448;2024-02-23T03:13:02;97837.56;;;2.87;100.00
60832;BME280;46665;51.558;-0.448;2024-02-23T03:15:46;97820.84;;;2.90;100.00
60832;BME280;46665;51.558;-0.448;2024-02-23T03:18:30;97815.47;;;2.90;100.00
60832;BME280;46665;51.558;-0.448;2024-02-23T03:21:14;97819.47;;;2.93;100.00
60832;BME280;46665;51.558;-0.448;2024-02-23T03:23:58;97816.00;;;2.92;100.00
60832;BME280;46665;51.558;-0.448;2024-02-23T03:26:43;97813.91;;;2.89;100.00
60832;BME280;46665;51.558;-0.448;2024-02-23T03:29:27;97814.09;;;2.93;100.00
60832;BME280;46665;51.558;-0.448;2024-02-23T03:32:13;97818.00;;;2.87;100.00
60832;BME280;46665;51.558;-0.448;2024-02-23T03:34:57;97824.03;;;2.92;100.00
60832;BME280;46665;51.558;-0.448;2024-02-23T03:37:40;97810.13;;;2.90;100.00
60832;BME280;46665;51.558;-0.448;2024-02-23T03:40:24;97819.97;;;2.95;100.00
60832;BME280;46665;51.558;-0.448;2024-02-23T03:43:08;97816.78;;;2.93;100.00
60832;BME280;46665;51.558;-0.448;2024-02-23T03:45:52;97828.53;;;2.97;100.00
60832;BME280;46665;51.558;-0.448;2024-02-23T03:48:36;97825.13;;;3.05;100.00
60832;BME280;46665;51.558;-0.448;2024-02-23T03:51:20;97819.16;;;3.08;100.00
60832;BME280;46665;51.558;-0.448;2024-02-23T03:54:04;97829.28;;;3.11;100.00
60832;BME280;46665;51.558;-0.448;2024-02-23T03:56:48;97820.31;;;3.16;100.00
60832;BME280;46665;51.558;-0.448;2024-02-23T03:59:32;97810.38;;;3.16;100.00
60832;BME280;46665;51.558;-0.448;2024-02-23T04:02:17;97825.09;;;3.19;100.00
60832;BME280;46665;51.558;-0.448;2024-02-23T04:05:00;97819.94;;;3.22;100.00
60832;BME280;46665;51.558;-0.448;2024-02-23T04:07:44;97824.50;;;3.22;100.00
60832;BME280;46665;51.558;-0.448;2024-02-23T04:10:28;97830.56;;;3.28;100.00
60832;BME280;46665;51.558;-0.448;2024-02-23T04:13:12;97835.94;;;3.28;100.00
60832;BME280;46665;51.558;-0.448;2024-02-23T04:16:01;97844.19;;;3.31;100.00
60832;BME280;46665;51.558;-0.448;2024-02-23T04:18:46;97840.22;;;3.29;100.00
60832;BME280;46665;51.558;-0.448;2024-02-23T04:21:30;97833.16;;;3.33;100.00
60832;BME280;46665;51.558;-0.448;2024-02-23T04:24:14;97840.09;;;3.34;100.00
60832;BME280;46665;51.558;-0.448;2024-02-23T04:26:58;97843.09;;;3.32;100.00
60832;BME280;46665;51.558;-0.448;2024-02-23T04:29:42;97845.19;;;3.35;100.00
60832;BME280;46665;51.558;-0.448;2024-02-23T04:32:25;97839.81;;;3.35;100.00
60832;BME280;46665;51.558;-0.448;2024-02-23T04:35:09;97839.81;;;3.35;100.00
60832;BME280;46665;51.558;-0.448;2024-02-23T04:37:54;97834.16;;;3.37;100.00
60832;BME280;46665;51.558;-0.448;2024-02-23T04:40:38;97834.44;;;3.35;100.00
60832;BME280;46665;51.558;-0.448;2024-02-23T04:43:22;97846.59;;;3.33;100.00
60832;BME280;46665;51.558;-0.448;2024-02-23T04:46:06;97847.97;;;3.30;100.00
60832;BME280;46665;51.558;-0.448;2024-02-23T04:48:50;97850.16;;;3.28;100.00
60832;BME280;46665;51.558;-0.448;2024-02-23T04:51:34;97867.19;;;3.23;100.00
60832;BME280;46665;51.558;-0.448;2024-02-23T04:54:18;97870.50;;;3.20;100.00
60832;BME280;46665;51.558;-0.448;2024-02-23T04:57:02;97873.69;;;3.22;100.00
60832;BME280;46665;51.558;-0.448;2024-02-23T04:59:46;97889.97;;;3.26;100.00
60832;BME280;46665;51.558;-0.448;2024-02-23T05:02:30;97890.47;;;3.28;100.00
60832;BME280;46665;51.558;-0.448;2024-02-23T05:05:18;97885.09;;;3.28;100.00
60832;BME280;46665;51.558;-0.448;2024-02-23T05:08:03;97873.97;;;3.21;100.00
60832;BME280;46665;51.558;-0.448;2024-02-23T05:10:47;97879.34;;;3.21;100.00
60832;BME280;46665;51.558;-0.448;2024-02-23T05:13:31;97880.72;;;3.18;100.00
60832;BME280;46665;51.558;-0.448;2024-02-23T05:16:15;97877.66;;;3.11;100.00
60832;BME280;46665;51.558;-0.448;2024-02-23T05:18:59;97869.13;;;3.09;100.00
60832;BME280;46665;51.558;-0.448;2024-02-23T05:21:43;97881.03;;;3.03;100.00
60832;BME280;46665;51.558;-0.448;2024-02-23T05:24:27;97877.16;;;2.95;100.00
60832;BME280;46665;51.558;-0.448;2024-02-23T05:27:11;97879.25;;;2.98;100.00
60832;BME280;46665;51.558;-0.448;2024-02-23T05:29:54;97885.53;;;2.94;100.00
60832;BME280;46665;51.558;-0.448;2024-02-23T05:32:38;97896.75;;;2.96;100.00
60832;BME280;46665;51.558;-0.448;2024-02-23T05:35:22;97882.72;;;2.85;100.00
60832;BME280;46665;51.558;-0.448;2024-02-23T05:38:06;97897.56;;;2.82;100.00
60832;BME280;46665;51.558;-0.448;2024-02-23T05:40:50;97892.97;;;2.83;100.00
60832;BME280;46665;51.558;-0.448;2024-02-23T05:43:34;97895.47;;;2.79;100.00
60832;BME280;46665;51.558;-0.448;2024-02-23T05:46:18;97895.06;;;2.72;100.00
60832;BME280;46665;51.558;-0.448;2024-02-23T05:49:04;97903.31;;;2.76;100.00
60832;BME280;46665;51.558;-0.448;2024-02-23T05:51:48;97911.16;;;2.72;100.00
60832;BME280;46665;51.558;-0.448;2024-02-23T05:54:32;97903.91;;;2.73;100.00
60832;BME280;46665;51.558;-0.448;2024-02-23T05:57:16;97914.97;;;2.71;100.00
60832;BME280;46665;51.558;-0.448;2024-02-23T06:00:00;97927.88;;;2.69;100.00
60832;BME280;46665;51.558;-0.448;2024-02-23T06:02:45;97926.78;;;2.70;100.00
60832;BME280;46665;51.558;-0.448;2024-02-23T06:05:29;97931.84;;;2.72;100.00
60832;BME280;46665;51.558;-0.448;2024-02-23T06:08:15;97926.09;;;2.78;100.00
60832;BME280;46665;51.558;-0.448;2024-02-23T06:11:00;97930.97;;;2.76;100.00
60832;BME280;46665;51.558;-0.448;2024-02-23T06:13:44;97929.97;;;2.72;100.00
60832;BME280;46665;51.558;-0.448;2024-02-23T06:16:28;97938.31;;;2.71;100.00
60832;BME280;46665;51.558;-0.448;2024-02-23T06:19:12;97933.34;;;2.64;100.00
60832;BME280;46665;51.558;-0.448;2024-02-23T06:21:56;97926.94;;;2.60;100.00
60832;BME280;46665;51.558;-0.448;2024-02-23T06:24:41;97934.03;;;2.56;100.00
60832;BME280;46665;51.558;-0.448;2024-02-23T06:27:29;97929.72;;;2.55;100.00
60832;BME280;46665;51.558;-0.448;2024-02-23T06:30:13;97933.28;;;2.50;100.00
60832;BME280;46665;51.558;-0.448;2024-02-23T06:32:58;97931.41;;;2.51;100.00
60832;BME280;46665;51.558;-0.448;2024-02-23T06:35:42;97940.03;;;2.48;100.00
60832;BME280;46665;51.558;-0.448;2024-02-23T06:38:26;97940.03;;;2.48;100.00
60832;BME280;46665;51.558;-0.448;2024-02-23T06:41:11;97941.22;;;2.42;100.00
60832;BME280;46665;51.558;-0.448;2024-02-23T06:43:55;97945.81;;;2.41;100.00
60832;BME280;46665;51.558;-0.448;2024-02-23T06:46:39;97956.03;;;2.39;100.00
60832;BME280;46665;51.558;-0.448;2024-02-23T06:49:24;97976.41;;;2.40;100.00
60832;BME280;46665;51.558;-0.448;2024-02-23T06:52:08;97952.03;;;2.36;100.00
60832;BME280;46665;51.558;-0.448;2024-02-23T06:54:52;97966.25;;;2.37;100.00
60832;BME280;46665;51.558;-0.448;2024-02-23T06:57:36;97967.34;;;2.36;100.00
60832;BME280;46665;51.558;-0.448;2024-02-23T07:00:21;97981.56;;;2.36;100.00
60832;BME280;46665;51.558;-0.448;2024-02-23T07:03:05;97988.31;;;2.34;100.00
60832;BME280;46665;51.558;-0.448;2024-02-23T07:05:49;97981.13;;;2.29;100.00
60832;BME280;46665;51.558;-0.448;2024-02-23T07:08:33;97983.81;;;2.29;100.00
60832;BME280;46665;51.558;-0.448;2024-02-23T07:11:17;97981.91;;;2.30;100.00
60832;BME280;46665;51.558;-0.448;2024-02-23T07:14:02;97984.16;;;2.23;100.00
60832;BME280;46665;51.558;-0.448;2024-02-23T07:16:46;97986.66;;;2.19;100.00
60832;BME280;46665;51.558;-0.448;2024-02-23T07:19:31;97989.53;;;2.23;100.00
60832;BME280;46665;51.558;-0.448;2024-02-23T07:22:15;97996.22;;;2.25;100.00
60832;BME280;46665;51.558;-0.448;2024-02-23T07:24:59;97998.41;;;2.23;100.00
60832;BME280;46665;51.558;-0.448;2024-02-23T07:27:46;97997.81;;;2.26;100.00
60832;BME280;46665;51.558;-0.448;2024-02-23T07:30:33;98001.66;;;2.20;100.00
60832;BME280;46665;51.558;-0.448;2024-02-23T07:33:18;98001.16;;;2.18;100.00
60832;BME280;46665;51.558;-0.448;2024-02-23T07:36:02;98007.00;;;2.20;100.00
60832;BME280;46665;51.558;-0.448;2024-02-23T07:38:47;98004.56;;;2.24;100.00
60832;BME280;46665;51.558;-0.448;2024-02-23T07:41:31;98007.53;;;2.22;100.00
60832;BME280;46665;51.558;-0.448;2024-02-23T07:44:15;97996.28;;;2.20;100.00
60832;BME280;46665;51.558;-0.448;2024-02-23T07:46:59;98011.25;;;2.26;100.00
60832;BME280;46665;51.558;-0.448;2024-02-23T07:49:43;98017.31;;;2.32;100.00
60832;BME280;46665;51.558;-0.448;2024-02-23T07:52:27;98006.88;;;2.30;100.00
60832;BME280;46665;51.558;-0.448;2024-02-23T07:55:12;98010.84;;;2.33;100.00
60832;BME280;46665;51.558;-0.448;2024-02-23T07:57:57;98026.41;;;2.36;100.00
60832;BME280;46665;51.558;-0.448;2024-02-23T08:00:45;98023.13;;;2.39;100.00
60832;BME280;46665;51.558;-0.448;2024-02-23T08:03:29;98027.13;;;2.42;100.00
60832;BME280;46665;51.558;-0.448;2024-02-23T08:06:12;98032.31;;;2.52;100.00
60832;BME280;46665;51.558;-0.448;2024-02-23T08:08:56;98034.41;;;2.55;100.00
60832;BME280;46665;51.558;-0.448;2024-02-23T08:11:40;98031.16;;;2.58;100.00
60832;BME280;46665;51.558;-0.448;2024-02-23T08:14:24;98037.03;;;2.60;100.00
60832;BME280;46665;51.558;-0.448;2024-02-23T08:17:09;98052.19;;;2.70;100.00
60832;BME280;46665;51.558;-0.448;2024-02-23T08:19:53;98032.78;;;2.73;100.00
60832;BME280;46665;51.558;-0.448;2024-02-23T08:22:37;98039.38;;;2.80;100.00
60832;BME280;46665;51.558;-0.448;2024-02-23T08:25:20;98022.69;;;2.83;100.00
60832;BME280;46665;51.558;-0.448;2024-02-23T08:28:04;98036.06;;;2.89;100.00
60832;BME280;46665;51.558;-0.448;2024-02-23T08:30:49;98039.13;;;2.96;100.00
60832;BME280;46665;51.558;-0.448;2024-02-23T08:33:33;98037.81;;;2.93;100.00
60832;BME280;46665;51.558;-0.448;2024-02-23T08:36:17;98042.25;;;3.03;100.00
60832;BME280;46665;51.558;-0.448;2024-02-23T08:39:01;98041.06;;;3.09;100.00
60832;BME280;46665;51.558;-0.448;2024-02-23T08:41:45;98052.81;;;3.13;100.00
60832;BME280;46665;51.558;-0.448;2024-02-23T08:44:29;98053.22;;;3.20;100.00
60832;BME280;46665;51.558;-0.448;2024-02-23T08:47:13;98064.38;;;3.28;100.00
60832;BME280;46665;51.558;-0.448;2024-02-23T08:49:56;98075.75;;;3.38;100.00
60832;BME280;46665;51.558;-0.448;2024-02-23T08:52:40;98076.44;;;3.44;100.00
60832;BME280;46665;51.558;-0.448;2024-02-23T08:55:25;98073.97;;;3.47;100.00
60832;BME280;46665;51.558;-0.448;2024-02-23T08:58:09;98079.47;;;3.56;100.00
60832;BME280;46665;51.558;-0.448;2024-02-23T09:00:53;98070.69;;;3.64;100.00
60832;BME280;46665;51.558;-0.448;2024-02-23T09:03:37;98078.88;;;3.73;100.00
60832;BME280;46665;51.558;-0.448;2024-02-23T09:06:21;98084.44;;;3.77;100.00
60832;BME280;46665;51.558;-0.448;2024-02-23T09:09:05;98091.53;;;3.86;100.00
60832;BME280;46665;51.558;-0.448;2024-02-23T09:11:49;98087.94;;;3.91;100.00
60832;BME280;46665;51.558;-0.448;2024-02-23T09:14:32;98097.72;;;4.01;100.00
60832;BME280;46665;51.558;-0.448;2024-02-23T09:17:19;98092.72;;;4.08;100.00
60832;BME280;46665;51.558;-0.448;2024-02-23T09:20:05;98093.09;;;4.15;100.00
60832;BME280;46665;51.558;-0.448;2024-02-23T09:22:49;98102.34;;;4.23;100.00
60832;BME280;46665;51.558;-0.448;2024-02-23T09:25:33;98102.34;;;4.23;100.00
60832;BME280;46665;51.558;-0.448;2024-02-23T09:28:17;98099.75;;;4.31;100.00
60832;BME280;46665;51.558;-0.448;2024-02-23T09:31:01;98108.63;;;4.32;100.00
60832;BME280;46665;51.558;-0.448;2024-02-23T09:33:45;98110.94;;;4.39;100.00
60832;BME280;46665;51.558;-0.448;2024-02-23T09:36:31;98113.41;;;4.35;100.00
60832;BME280;46665;51.558;-0.448;2024-02-23T09:39:15;98112.22;;;4.41;100.00
60832;BME280;46665;51.558;-0.448;2024-02-23T09:41:58;98125.06;;;4.44;100.00
60832;BME280;46665;51.558;-0.448;2024-02-23T09:44:44;98117.78;;;4.45;100.00
60832;BME280;46665;51.558;-0.448;2024-02-23T09:47:30;98114.19;;;4.49;100.00
60832;BME280;46665;51.558;-0.448;2024-02-23T09:50:15;98118.78;;;4.49;100.00
60832;BME280;46665;51.558;-0.448;2024-02-23T09:53:04;98113.47;;;4.57;100.00
60832;BME280;46665;51.558;-0.448;2024-02-23T09:55:50;98118.75;;;4.63;100.00
60832;BME280;46665;51.558;-0.448;2024-02-23T09:58:39;98116.53;;;4.78;100.00
60832;BME280;46665;51.558;-0.448;2024-02-23T10:01:30;98102.72;;;4.80;100.00
60832;BME280;46665;51.558;-0.448;2024-02-23T10:04:16;98108.66;;;4.91;100.00
60832;BME280;46665;51.558;-0.448;2024-02-23T10:07:02;98118.03;;;4.93;100.00
60832;BME280;46665;51.558;-0.448;2024-02-23T10:09:47;98119.28;;;4.87;100.00
60832;BME280;46665;51.558;-0.448;2024-02-23T10:12:33;98127.41;;;4.96;100.00
60832;BME280;46665;51.558;-0.448;2024-02-23T10:15:17;98122.13;;;4.91;100.00
60832;BME280;46665;51.558;-0.448;2024-02-23T10:18:01;98121.91;;;5.01;100.00
60832;BME280;46665;51.558;-0.448;2024-02-23T10:20:46;98131.09;;;5.22;100.00
60832;BME280;46665;51.558;-0.448;2024-02-23T10:23:30;98112.91;;;5.28;100.00
60832;BME280;46665;51.558;-0.448;2024-02-23T10:26:14;98121.75;;;5.51;100.00
60832;BME280;46665;51.558;-0.448;2024-02-23T10:29:02;98125.03;;;5.39;100.00
60832;BME280;46665;51.558;-0.448;2024-02-23T10:31:47;98115.97;;;5.35;100.00
60832;BME280;46665;51.558;-0.448;2024-02-23T10:34:35;98122.34;;;5.39;100.00
60832;BME280;46665;51.558;-0.448;2024-02-23T10:37:22;98120.22;;;5.59;100.00
60832;BME280;46665;51.558;-0.448;2024-02-23T10:40:08;98121.81;;;5.60;100.00
60832;BME280;46665;51.558;-0.448;2024-02-23T10:42:56;98127.22;;;5.60;100.00
60832;BME280;46665;51.558;-0.448;2024-02-23T10:45:41;98128.13;;;5.55;100.00
60832;BME280;46665;51.558;-0.448;2024-02-23T10:48:26;98120.44;;;5.71;100.00
60832;BME280;46665;51.558;-0.448;2024-02-23T10:51:13;98133.78;;;5.76;100.00
60832;BME280;46665;51.558;-0.448;2024-02-23T10:53:58;98130.00;;;5.77;100.00
60832;BME280;46665;51.558;-0.448;2024-02-23T10:56:46;98132.22;;;5.84;100.00
60832;BME280;46665;51.558;-0.448;2024-02-23T10:59:31;98139.88;;;5.91;100.00
60832;BME280;46665;51.558;-0.448;2024-02-23T11:02:19;98132.97;;;5.98;100.00
60832;BME280;46665;51.558;-0.448;2024-02-23T11:05:04;98157.28;;;6.07;100.00
60832;BME280;46665;51.558;-0.448;2024-02-23T11:07:48;98138.09;;;6.17;100.00
60832;BME280;46665;51.558;-0.448;2024-02-23T11:11:08;98145.31;;;6.31;100.00
60832;BME280;46665;51.558;-0.448;2024-02-23T11:13:55;98138.19;;;6.43;100.00
60832;BME280;46665;51.558;-0.448;2024-02-23T11:16:40;98158.88;;;6.57;100.00
60832;BME280;46665;51.558;-0.448;2024-02-23T11:19:35;98151.88;;;6.64;100.00
60832;BME280;46665;51.558;-0.448;2024-02-23T11:22:24;98149.34;;;6.77;100.00
60832;BME280;46665;51.558;-0.448;2024-02-23T11:25:10;98142.03;;;6.86;100.00
60832;BME280;46665;51.558;-0.448;2024-02-23T11:27:54;98143.63;;;6.87;100.00
60832;BME280;46665;51.558;-0.448;2024-02-23T11:30:43;98142.53;;;6.97;100.00
60832;BME280;46665;51.558;-0.448;2024-02-23T11:33:29;98139.50;;;7.15;100.00
60832;BME280;46665;51.558;-0.448;2024-02-23T11:36:42;98129.63;;;7.37;100.00
60832;BME280;46665;51.558;-0.448;2024-02-23T11:39:26;98136.13;;;7.45;100.00
60832;BME280;46665;51.558;-0.448;2024-02-23T11:42:12;98146.44;;;7.51;100.00
60832;BME280;46665;51.558;-0.448;2024-02-23T11:44:56;98142.31;;;7.45;100.00
60832;BME280;46665;51.558;-0.448;2024-02-23T11:47:42;98140.44;;;7.37;100.00
60832;BME280;46665;51.558;-0.448;2024-02-23T11:50:26;98145.06;;;7.28;100.00
60832;BME280;46665;51.558;-0.448;2024-02-23T11:53:10;98135.69;;;7.16;100.00
60832;BME280;46665;51.558;-0.448;2024-02-23T11:55:54;98144.59;;;7.08;100.00
60832;BME280;46665;51.558;-0.448;2024-02-23T11:58:39;98136.81;;;7.07;100.00
60832;BME280;46665;51.558;-0.448;2024-02-23T12:01:23;98145.06;;;7.19;100.00
60832;BME280;46665;51.558;-0.448;2024-02-23T12:04:07;98134.06;;;7.33;100.00
60832;BME280;46665;51.558;-0.448;2024-02-23T12:06:52;98132.91;;;7.51;100.00
60832;BME280;46665;51.558;-0.448;2024-02-23T12:09:36;98131.13;;;7.73;100.00
60832;BME280;46665;51.558;-0.448;2024-02-23T12:12:20;98133.44;;;7.92;100.00
60832;BME280;46665;51.558;-0.448;2024-02-23T12:15:06;98133.41;;;8.00;100.00
60832;BME280;46665;51.558;-0.448;2024-02-23T12:17:49;98137.50;;;8.07;100.00
60832;BME280;46665;51.558;-0.448;2024-02-23T12:20:34;98142.91;;;8.15;100.00
60832;BME280;46665;51.558;-0.448;2024-02-23T12:23:18;98136.34;;;8.16;100.00
60832;BME280;46665;51.558;-0.448;2024-02-23T12:26:02;98143.59;;;8.03;100.00
60832;BME280;46665;51.558;-0.448;2024-02-23T12:28:47;98136.13;;;7.92;100.00
60832;BME280;46665;51.558;-0.448;2024-02-23T12:31:34;98141.78;;;7.78;100.00
60832;BME280;46665;51.558;-0.448;2024-02-23T12:34:18;98146.22;;;7.74;100.00
60832;BME280;46665;51.558;-0.448;2024-02-23T12:37:04;98138.91;;;7.74;100.00
60832;BME280;46665;51.558;-0.448;2024-02-23T12:39:49;98133.00;;;7.81;100.00
60832;BME280;46665;51.558;-0.448;2024-02-23T12:42:34;98143.66;;;7.86;100.00
60832;BME280;46665;51.558;-0.448;2024-02-23T12:45:18;98137.56;;;7.89;100.00
60832;BME280;46665;51.558;-0.448;2024-02-23T12:48:02;98134.41;;;7.87;100.00
60832;BME280;46665;51.558;-0.448;2024-02-23T12:50:46;98131.06;;;7.81;100.00
60832;BME280;46665;51.558;-0.448;2024-02-23T12:53:35;98127.75;;;7.76;99.94
60832;BME280;46665;51.558;-0.448;2024-02-23T12:56:22;98125.09;;;7.67;100.00
60832;BME280;46665;51.558;-0.448;2024-02-23T12:59:06;98126.38;;;7.61;99.88
60832;BME280;46665;51.558;-0.448;2024-02-23T13:01:52;98126.97;;;7.67;100.00
60832;BME280;46665;51.558;-0.448;2024-02-23T13:04:37;98117.59;;;7.73;100.00
60832;BME280;46665;51.558;-0.448;2024-02-23T13:07:21;98118.66;;;7.80;100.00
60832;BME280;46665;51.558;-0.448;2024-02-23T13:10:05;98109.41;;;7.90;100.00
60832;BME280;46665;51.558;-0.448;2024-02-23T13:12:49;98116.69;;;7.98;98.54
60832;BME280;46665;51.558;-0.448;2024-02-23T13:15:33;98120.78;;;8.04;100.00
60832;BME280;46665;51.558;-0.448;2024-02-23T13:18:18;98119.91;;;8.21;97.34
60832;BME280;46665;51.558;-0.448;2024-02-23T13:21:03;98117.50;;;8.29;97.07
60832;BME280;46665;51.558;-0.448;2024-02-23T13:23:47;98113.63;;;8.38;98.45
60832;BME280;46665;51.558;-0.448;2024-02-23T13:26:31;98102.28;;;8.45;98.54
60832;BME280;46665;51.558;-0.448;2024-02-23T13:29:15;98112.41;;;8.57;97.28
60832;BME280;46665;51.558;-0.448;2024-02-23T13:31:59;98128.41;;;8.50;87.60
60832;BME280;46665;51.558;-0.448;2024-02-23T13:34:43;98119.50;;;8.40;87.21
60832;BME280;46665;51.558;-0.448;2024-02-23T13:37:27;98116.97;;;8.35;87.80
60832;BME280;46665;51.558;-0.448;2024-02-23T13:40:11;98109.94;;;8.43;93.48
60832;BME280;46665;51.558;-0.448;2024-02-23T13:42:55;98106.53;;;8.55;88.58
60832;BME280;46665;51.558;-0.448;2024-02-23T13:45:52;98110.63;;;8.61;90.40
60832;BME280;46665;51.558;-0.448;2024-02-23T13:48:37;98113.72;;;8.51;85.55
60832;BME280;46665;51.558;-0.448;2024-02-23T13:51:21;98112.22;;;8.62;89.24
60832;BME280;46665;51.558;-0.448;2024-02-23T13:54:04;98100.69;;;8.65;90.56
60832;BME280;46665;51.558;-0.448;2024-02-23T13:56:48;98097.28;;;8.77;89.10
60832;BME280;46665;51.558;-0.448;2024-02-23T13:59:32;98104.66;;;8.88;87.09
60832;BME280;46665;51.558;-0.448;2024-02-23T14:02:23;98095.63;;;8.84;84.29
60832;BME280;46665;51.558;-0.448;2024-02-23T14:05:08;98098.53;;;8.79;86.98
60832;BME280;46665;51.558;-0.448;2024-02-23T14:07:52;98112.78;;;8.88;87.09
60832;BME280;46665;51.558;-0.448;2024-02-23T14:10:39;98104.06;;;9.04;83.96
60832;BME280;46665;51.558;-0.448;2024-02-23T14:13:24;98117.22;;;9.14;76.43
60832;BME280;46665;51.558;-0.448;2024-02-23T14:16:08;98115.31;;;9.15;79.88
60832;BME280;46665;51.558;-0.448;2024-02-23T14:18:52;98117.88;;;9.11;80.69
60832;BME280;46665;51.558;-0.448;2024-02-23T14:21:36;98100.34;;;9.08;80.63